Sugar City, Idaho
Current Conditions -  °F | °C
As of 2:53 PM on Thursday 18 Dec 2014 (Local Time) from KRXE Reporting Station
Overcast Overcast  
Wind Chill: 28°   Ceiling: 4700
Heat Index: 33°   Visibility: 10mi
Dew Point: 28°   Wind: 6mph
Humidity: 82%   Direction: 190°S
Pressure: 30.1"   Gusts: NA
Location:  43.87°N, 111.75°W
Report Text: KRXE 182153Z AUTO 19005KT 10SM FEW018 SCT037 OVC047 01/M02 A3010 RMK AO2 SLP223 T00061022
Loading
Personal Weather Stations






























Interactive Weather Map New forecast layout! Learn more

10-Day Weather Forecast

Advertisements
Track Severe Weather on mobile